Time;durP1;ratioP1;P1;durP2;ratioP2;P2;SDS_P1;SDS_P2;PMS_P1;PMS_P2;Temp;Humidity;BMP_temperature;BMP_pressure;BME280_temperature;BME280_humidity;BME280_pressure;Samples;Min_cycle;Max_cycle;Signal;HPM_P1;HPM_P2
2022/03/10 00:00:27;;;;;;;1999.90;999.90;;;;;;;-0.21;39.70;102350.44;4979877;28;97806;-70
2022/03/10 00:02:54;;;;;;;1999.90;999.90;;;;;;;-0.22;39.81;102351.25;5005476;27;98217;-70
2022/03/10 00:05:22;;;;;;;1999.90;999.90;;;;;;;-0.24;39.90;102357.09;5020735;27;97803;-69
2022/03/10 00:07:50;;;;;;;1999.90;999.90;;;;;;;-0.28;39.65;102361.16;5022911;27;98723;-70
2022/03/10 00:10:19;;;;;;;1999.90;999.90;;;;;;;-0.31;39.77;102355.66;5010139;27;99572;-70
2022/03/10 00:12:48;;;;;;;1999.90;999.90;;;;;;;-0.34;39.80;102359.69;5016428;27;96914;-71
2022/03/10 00:15:16;;;;;;;1999.90;999.90;;;;;;;-0.37;39.64;102376.00;4985535;28;96828;-70
2022/03/10 00:17:44;;;;;;;1999.90;999.90;;;;;;;-0.39;40.00;102374.97;5020714;28;97040;-69
2022/03/10 00:20:12;;;;;;;1999.90;999.90;;;;;;;-0.39;39.79;102376.69;4999496;28;97904;-70
2022/03/10 00:22:44;;;;;;;1999.90;999.90;;;;;;;-0.41;39.93;102380.84;5003737;27;98086;-69
2022/03/10 00:25:13;;;;;;;1999.90;999.90;;;;;;;-0.42;39.95;102381.59;4993735;28;97486;-70
2022/03/10 00:27:42;;;;;;;1999.90;999.90;;;;;;;-0.44;40.26;102383.16;5013610;27;97757;-70
2022/03/10 00:30:11;;;;;;;1999.90;999.90;;;;;;;-0.45;39.80;102384.88;5012529;27;99286;-70
2022/03/10 00:32:42;;;;;;;1999.90;999.90;;;;;;;-0.46;40.04;102390.88;5011965;27;97138;-70
2022/03/10 00:35:11;;;;;;;1999.90;999.90;;;;;;;-0.43;39.97;102400.72;5021333;27;96987;-71
2022/03/10 00:37:38;;;;;;;1999.90;999.90;;;;;;;-0.48;40.43;102392.44;5008278;27;98455;-70
2022/03/10 00:40:07;;;;;;;1999.90;999.90;;;;;;;-0.50;40.09;102407.06;5019057;28;98928;-70
2022/03/10 00:42:37;;;;;;;1999.90;999.90;;;;;;;-0.51;40.27;102401.69;5022234;27;97908;-71
2022/03/10 00:45:07;;;;;;;1999.90;999.90;;;;;;;-0.54;39.97;102399.75;5002800;27;98130;-70
2022/03/10 00:47:36;;;;;;;1999.90;999.90;;;;;;;-0.55;40.09;102405.72;5018654;27;97840;-70
2022/03/10 00:50:05;;;;;;;1999.90;999.90;;;;;;;-0.55;40.31;102407.41;5009174;27;100157;-70
2022/03/10 00:52:33;;;;;;;1999.90;999.90;;;;;;;-0.58;39.94;102400.22;4990218;28;96885;-71
2022/03/10 00:55:01;;;;;;;1999.90;999.90;;;;;;;-0.62;40.51;102403.34;5009753;27;97712;-70
2022/03/10 00:57:29;;;;;;;1999.90;999.90;;;;;;;-0.62;40.02;102398.13;5014351;27;98001;-71
2022/03/10 00:59:57;;;;;;;1999.90;999.90;;;;;;;-0.65;40.11;102397.84;5006943;27;100449;-70
2022/03/10 01:02:26;;;;;;;1999.90;999.90;;;;;;;-0.67;40.05;102394.16;5018518;27;97657;-70
2022/03/10 01:04:53;;;;;;;1999.90;999.90;;;;;;;-0.72;40.26;102400.66;5019037;27;97648;-69
2022/03/10 01:07:21;;;;;;;1999.90;999.90;;;;;;;-0.73;40.60;102388.38;5015700;27;98771;-70
2022/03/10 01:09:49;;;;;;;1999.90;999.90;;;;;;;-0.74;40.27;102390.84;4998668;28;100682;-70
2022/03/10 01:12:17;;;;;;;1999.90;999.90;;;;;;;-0.74;40.83;102397.00;5011378;27;97141;-70
2022/03/10 01:14:44;;;;;;;1999.90;999.90;;;;;;;-0.78;40.66;102397.50;5000924;28;98045;-71
2022/03/10 01:17:13;;;;;;;1999.90;999.90;;;;;;;-0.79;40.73;102393.03;5005148;27;99794;-71
2022/03/10 01:19:42;;;;;;;1999.90;999.90;;;;;;;-0.81;40.74;102400.72;5018335;27;99431;-70
2022/03/10 01:22:10;;;;;;;1999.90;999.90;;;;;;;-0.82;40.42;102397.97;5008209;27;97634;-71
2022/03/10 01:24:37;;;;;;;1999.90;999.90;;;;;;;-0.85;40.55;102401.22;4999875;28;97348;-71
2022/03/10 01:27:06;;;;;;;1999.90;999.90;;;;;;;-0.87;40.29;102404.50;5011872;27;98547;-70
2022/03/10 01:29:33;;;;;;;1999.90;999.90;;;;;;;-0.89;40.52;102400.81;5015367;28;96771;-70
2022/03/10 01:32:01;;;;;;;1999.90;999.90;;;;;;;-0.91;40.37;102398.06;5010110;27;97689;-70
2022/03/10 01:34:29;;;;;;;1999.90;999.90;;;;;;;-0.93;40.64;102406.53;5017262;27;97810;-70
2022/03/10 01:36:58;;;;;;;1999.90;999.90;;;;;;;-0.95;40.72;102408.06;5009551;27;98537;-70
2022/03/10 01:39:26;;;;;;;1999.90;999.90;;;;;;;-0.96;41.02;102401.03;5016618;27;98293;-71
2022/03/10 01:41:53;;;;;;;1999.90;999.90;;;;;;;-0.98;40.70;102411.34;5017863;27;97189;-70
2022/03/10 01:44:22;;;;;;;1999.90;999.90;;;;;;;-1.00;41.15;102411.97;5000561;28;97289;-70
2022/03/10 01:46:50;;;;;;;1999.90;999.90;;;;;;;-1.05;41.24;102410.63;5005396;27;98585;-70
2022/03/10 01:49:17;;;;;;;1999.90;999.90;;;;;;;-1.05;40.65;102413.22;5007492;28;98150;-70
2022/03/10 01:51:45;;;;;;;1999.90;999.90;;;;;;;-1.06;41.11;102411.38;5017203;27;99263;-70
2022/03/10 01:54:14;;;;;;;1999.90;999.90;;;;;;;-1.07;40.85;102414.78;5019209;27;98364;-70
2022/03/10 01:56:42;;;;;;;1999.90;999.90;;;;;;;-1.07;41.23;102406.94;5008101;27;98776;-69
2022/03/10 01:59:10;;;;;;;1999.90;999.90;;;;;;;-1.08;40.81;102412.94;4992823;28;97597;-70
2022/03/10 02:01:38;;;;;;;1999.90;999.90;;;;;;;-1.09;40.95;102411.09;5015382;28;97521;-70
2022/03/10 02:04:06;;;;;;;1999.90;999.90;;;;;;;-1.11;40.69;102408.34;5006166;27;97390;-69
2022/03/10 02:06:35;;;;;;;1999.90;999.90;;;;;;;-1.13;40.98;102419.41;5016434;27;97890;-70
2022/03/10 02:11:50;;;;;;;1999.90;999.90;;;;;;;-1.16;41.25;102408.69;5018026;27;96996;-70
2022/03/10 02:17:22;;;;;;;1999.90;999.90;;;;;;;-0.59;40.46;102410.56;4997142;28;98971;-70
2022/03/10 02:19:52;;;;;;;1999.90;999.90;;;;;;;-1.00;41.58;102401.50;5010296;27;100441;-69
2022/03/10 02:22:23;;;;;;;1999.90;999.90;;;;;;;-1.09;41.71;102401.56;5005618;27;98056;-70
2022/03/10 02:24:52;;;;;;;1999.90;999.90;;;;;;;-1.12;41.35;102397.72;5010457;27;97818;-69
2022/03/10 02:27:22;;;;;;;1999.90;999.90;;;;;;;-1.19;41.38;102406.69;5003276;27;99728;-70
2022/03/10 02:29:51;;;;;;;1999.90;999.90;;;;;;;-1.22;41.82;102410.72;5014245;28;97965;-70
2022/03/10 02:32:19;;;;;;;1999.90;999.90;;;;;;;-1.30;42.19;102409.06;5008899;28;98047;-70
2022/03/10 02:34:48;;;;;;;1999.90;999.90;;;;;;;-1.33;42.09;102416.63;5014462;27;97774;-71
2022/03/10 02:37:21;;;;;;;1999.90;999.90;;;;;;;-1.35;41.96;102420.78;5008870;27;98429;-70
2022/03/10 02:39:49;;;;;;;1999.90;999.90;;;;;;;-1.38;41.56;102420.50;5013916;27;97569;-70
2022/03/10 02:42:17;;;;;;;1999.90;999.90;;;;;;;-1.39;42.44;102416.97;5016646;27;97021;-70
2022/03/10 02:44:47;;;;;;;1999.90;999.90;;;;;;;-1.40;41.66;102424.66;5006908;27;98410;-71
2022/03/10 02:47:16;;;;;;;1999.90;999.90;;;;;;;-1.41;42.33;102425.41;5009404;27;98605;-71
2022/03/10 02:49:44;;;;;;;1999.90;999.90;;;;;;;-1.44;42.01;102423.44;5002506;27;97641;-70
2022/03/10 02:52:12;;;;;;;1999.90;999.90;;;;;;;-1.49;41.63;102419.50;5007382;27;98018;-70
2022/03/10 02:54:44;;;;;;;1999.90;999.90;;;;;;;-1.53;41.87;102422.56;5018681;27;96859;-70
2022/03/10 02:57:14;;;;;;;1999.90;999.90;;;;;;;-1.58;41.76;102423.84;5017208;27;98424;-71
2022/03/10 02:59:42;;;;;;;1999.90;999.90;;;;;;;-1.60;42.18;102421.84;4986572;28;100771;-70
2022/03/10 03:02:10;;;;;;;1999.90;999.90;;;;;;;-1.63;42.26;102432.00;4989931;27;98308;-70
2022/03/10 03:04:38;;;;;;;1999.90;999.90;;;;;;;-1.68;42.78;102428.00;4982931;28;96992;-70
2022/03/10 03:07:06;;;;;;;1999.90;999.90;;;;;;;-1.70;42.81;102430.47;4990612;28;100600;-69
2022/03/10 03:09:34;;;;;;;1999.90;999.90;;;;;;;-1.71;41.93;102423.44;5007160;27;97876;-69
2022/03/10 03:12:03;;;;;;;1999.90;999.90;;;;;;;-1.73;42.74;102422.38;4996265;27;97064;-70
2022/03/10 03:14:31;;;;;;;1999.90;999.90;;;;;;;-1.72;42.41;102431.13;5000183;28;98072;-70
2022/03/10 03:16:58;;;;;;;1999.90;999.90;;;;;;;-1.74;41.99;102424.81;5013863;27;97771;-68
2022/03/10 03:19:26;;;;;;;1999.90;999.90;;;;;;;-1.79;42.96;102437.41;5016657;28;97637;-69
2022/03/10 03:21:54;;;;;;;1999.90;999.90;;;;;;;-1.87;42.99;102436.66;5016904;27;98438;-69
2022/03/10 03:24:22;;;;;;;1999.90;999.90;;;;;;;-1.94;42.93;102435.91;5000930;28;97121;-69
2022/03/10 03:26:50;;;;;;;1999.90;999.90;;;;;;;-1.98;42.47;102436.41;5017789;27;98216;-69
2022/03/10 03:29:19;;;;;;;1999.90;999.90;;;;;;;-1.98;42.20;102436.41;5020169;27;97573;-69
2022/03/10 03:31:49;;;;;;;1999.90;999.90;;;;;;;-1.99;42.98;102435.50;5011750;28;97463;-69
2022/03/10 03:34:17;;;;;;;1999.90;999.90;;;;;;;-1.99;42.53;102440.72;5006935;27;96833;-69
2022/03/10 03:36:45;;;;;;;1999.90;999.90;;;;;;;-1.98;42.69;102439.03;5013288;28;97917;-69
2022/03/10 03:39:14;;;;;;;1999.90;999.90;;;;;;;-1.98;42.71;102444.25;5015863;27;98289;-69
2022/03/10 03:41:42;;;;;;;1999.90;999.90;;;;;;;-1.99;42.82;102445.00;5018786;27;96866;-69
2022/03/10 03:44:11;;;;;;;1999.90;999.90;;;;;;;-2.01;42.94;102444.84;5022138;28;96903;-69
2022/03/10 03:46:40;;;;;;;1999.90;999.90;;;;;;;-2.02;42.54;102443.03;5010034;27;97772;-69
2022/03/10 03:49:11;;;;;;;1999.90;999.90;;;;;;;-2.06;43.06;102442.56;5007669;28;98749;-70
2022/03/10 03:51:39;;;;;;;1999.90;999.90;;;;;;;-2.11;43.00;102444.72;5005300;27;97106;-70
2022/03/10 03:54:10;;;;;;;1999.90;999.90;;;;;;;-2.12;42.86;102444.56;4992070;28;99871;-69
2022/03/10 03:56:38;;;;;;;1999.90;999.90;;;;;;;-2.14;43.02;102438.28;5008524;27;100276;-69
2022/03/10 03:59:06;;;;;;;1999.90;999.90;;;;;;;-2.16;42.85;102445.03;5005490;27;100686;-68
2022/03/10 04:01:34;;;;;;;1999.90;999.90;;;;;;;-2.18;42.78;102443.94;5015216;27;96946;-69
2022/03/10 04:04:03;;;;;;;1999.90;999.90;;;;;;;-2.20;42.78;102442.88;4988261;28;99432;-69
2022/03/10 04:06:31;;;;;;;1999.90;999.90;;;;;;;-2.20;42.90;102449.00;4985844;28;100275;-71
2022/03/10 04:08:59;;;;;;;1999.90;999.90;;;;;;;-2.21;42.86;102446.22;5017745;27;98926;-69
2022/03/10 04:11:27;;;;;;;1999.90;999.90;;;;;;;-2.24;43.13;102445.94;5012150;27;97709;-69
2022/03/10 04:13:55;;;;;;;1999.90;999.90;;;;;;;-2.28;43.23;102444.72;4995453;28;98664;-69
2022/03/10 04:16:23;;;;;;;1999.90;999.90;;;;;;;-2.31;43.18;102441.78;5021106;27;99163;-69
2022/03/10 04:18:50;;;;;;;1999.90;999.90;;;;;;;-2.34;42.58;102444.13;5018800;28;97802;-68
2022/03/10 04:21:20;;;;;;;1999.90;999.90;;;;;;;-2.37;43.25;102446.44;5003637;27;97645;-69
2022/03/10 04:23:47;;;;;;;1999.90;999.90;;;;;;;-2.40;43.03;102451.31;4999984;27;97561;-69
2022/03/10 04:26:15;;;;;;;1999.90;999.90;;;;;;;-2.47;43.46;102448.88;4987493;28;100432;-69
2022/03/10 04:28:43;;;;;;;1999.90;999.90;;;;;;;-2.49;43.19;102453.00;5012945;27;97739;-69
2022/03/10 04:31:10;;;;;;;1999.90;999.90;;;;;;;-2.50;43.54;102450.25;5012399;27;98372;-68
2022/03/10 04:33:38;;;;;;;1999.90;999.90;;;;;;;-2.49;43.18;102453.00;5006832;27;96939;-69
2022/03/10 04:36:07;;;;;;;1999.90;999.90;;;;;;;-2.49;43.34;102449.50;5012818;28;99133;-69
2022/03/10 04:38:36;;;;;;;1999.90;999.90;;;;;;;-2.51;42.86;102449.31;5011012;27;98902;-69
2022/03/10 04:41:03;;;;;;;1999.90;999.90;;;;;;;-2.50;43.38;102459.00;5020395;28;99924;-69
2022/03/10 04:43:31;;;;;;;1999.90;999.90;;;;;;;-2.53;43.34;102460.38;5017744;27;97244;-69
2022/03/10 04:45:59;;;;;;;1999.90;999.90;;;;;;;-2.57;43.69;102461.78;4985233;28;100465;-69
2022/03/10 04:48:27;;;;;;;1999.90;999.90;;;;;;;-2.60;43.41;102465.75;5001929;27;97649;-68
2022/03/10 04:50:55;;;;;;;1999.90;999.90;;;;;;;-2.61;43.63;102461.28;5018044;27;97518;-70
2022/03/10 04:53:23;;;;;;;1999.90;999.90;;;;;;;-2.60;43.58;102465.75;5016992;28;98455;-70
2022/03/10 04:55:52;;;;;;;1999.90;999.90;;;;;;;-2.62;43.42;102465.63;5020003;27;97798;-69
2022/03/10 04:58:19;;;;;;;1999.90;999.90;;;;;;;-2.62;43.24;102465.63;5006178;27;99558;-69
2022/03/10 05:00:47;;;;;;;1999.90;999.90;;;;;;;-2.64;43.42;102466.22;5017473;27;97140;-68
2022/03/10 05:03:15;;;;;;;1999.90;999.90;;;;;;;-2.68;43.71;102471.88;5007109;27;97673;-69
2022/03/10 05:05:43;;;;;;;1999.90;999.90;;;;;;;-2.71;43.44;102475.13;5015853;27;97654;-69
2022/03/10 05:08:10;;;;;;;1999.90;999.90;;;;;;;-2.73;43.67;102474.03;5014869;27;97723;-69
2022/03/10 05:10:38;;;;;;;1999.90;999.90;;;;;;;-2.72;43.85;102477.53;5014305;27;97376;-69
2022/03/10 05:13:07;;;;;;;1999.90;999.90;;;;;;;-2.72;43.64;102474.94;5019012;27;97234;-69
2022/03/10 05:15:35;;;;;;;1999.90;999.90;;;;;;;-2.74;43.79;102474.78;5016458;27;99166;-69
2022/03/10 05:18:05;;;;;;;1999.90;999.90;;;;;;;-2.76;43.57;102476.31;5001733;27;97745;-69
2022/03/10 05:20:35;;;;;;;1999.90;999.90;;;;;;;-2.77;43.48;102473.56;5015236;27;96956;-69
2022/03/10 05:23:05;;;;;;;1999.90;999.90;;;;;;;-2.81;44.01;102474.94;5018418;27;97276;-68
2022/03/10 05:25:34;;;;;;;1999.90;999.90;;;;;;;-2.86;43.97;102474.47;4989300;28;97936;-69
2022/03/10 05:28:03;;;;;;;1999.90;999.90;;;;;;;-2.86;43.75;102478.75;5009822;28;97654;-69
2022/03/10 05:30:32;;;;;;;1999.90;999.90;;;;;;;-2.87;43.52;102487.31;5027329;27;97034;-69
2022/03/10 05:32:59;;;;;;;1999.90;999.90;;;;;;;-2.87;43.78;102477.84;5016496;28;98180;-70
2022/03/10 05:35:29;;;;;;;1999.90;999.90;;;;;;;-2.87;43.95;102487.31;5016573;27;98686;-69
2022/03/10 05:37:57;;;;;;;1999.90;999.90;;;;;;;-2.90;44.07;102487.03;4998254;28;99835;-69
2022/03/10 05:40:25;;;;;;;1999.90;999.90;;;;;;;-2.90;43.94;102487.94;5011132;28;96920;-69
2022/03/10 05:42:54;;;;;;;1999.90;999.90;;;;;;;-2.90;44.20;102489.63;5013958;28;97088;-69
2022/03/10 05:45:22;;;;;;;1999.90;999.90;;;;;;;-2.89;43.71;102494.06;5014970;27;98301;-69
2022/03/10 05:47:53;;;;;;;1999.90;999.90;;;;;;;-2.92;43.51;102496.34;5017097;28;98966;-70
2022/03/10 05:50:23;;;;;;;1999.90;999.90;;;;;;;-2.91;43.66;102495.63;4999288;28;97047;-69
2022/03/10 05:52:51;;;;;;;1999.90;999.90;;;;;;;-2.91;44.08;102503.44;5015857;27;97612;-69
2022/03/10 05:55:20;;;;;;;1999.90;999.90;;;;;;;-2.93;44.24;102494.53;5010912;27;99679;-70
2022/03/10 05:57:47;;;;;;;1999.90;999.90;;;;;;;-2.93;43.98;102498.03;5013841;27;97077;-69
2022/03/10 06:00:16;;;;;;;1999.90;999.90;;;;;;;-2.93;43.61;102498.03;5014669;27;97739;-70
2022/03/10 06:02:43;;;;;;;1999.90;999.90;;;;;;;-2.92;43.44;102493.75;5016461;28;97004;-70
2022/03/10 06:05:12;;;;;;;1999.90;999.90;;;;;;;-2.91;44.01;102506.03;4996668;28;99166;-70
2022/03/10 06:07:40;;;;;;;1999.90;999.90;;;;;;;-2.90;43.44;102494.84;5019000;27;98307;-69
2022/03/10 06:10:09;;;;;;;1999.90;999.90;;;;;;;-2.90;43.93;102500.03;4991247;28;96898;-69
2022/03/10 06:12:36;;;;;;;1999.90;999.90;;;;;;;-2.89;43.74;102501.88;5017887;27;97191;-69
2022/03/10 06:15:06;;;;;;;1999.90;999.90;;;;;;;-2.87;43.87;102510.75;5016497;27;98877;-68
2022/03/10 06:17:34;;;;;;;1999.90;999.90;;;;;;;-2.87;43.98;102513.38;5014119;28;99388;-68
2022/03/10 06:20:02;;;;;;;1999.90;999.90;;;;;;;-2.85;43.58;102519.66;5007936;27;97469;-70
2022/03/10 06:22:36;;;;;;;1999.90;999.90;;;;;;;-2.84;43.50;102521.53;5005289;27;98275;-69
2022/03/10 06:25:05;;;;;;;1999.90;999.90;;;;;;;-2.82;43.88;102527.81;5009596;27;100075;-69
2022/03/10 06:27:33;;;;;;;1999.90;999.90;;;;;;;-2.80;43.63;102531.47;5010626;27;97637;-69
2022/03/10 06:30:00;;;;;;;1999.90;999.90;;;;;;;-2.77;44.10;102526.59;5011340;27;96967;-69
2022/03/10 06:32:28;;;;;;;1999.90;999.90;;;;;;;-2.76;44.04;102538.81;4989460;28;98646;-69
2022/03/10 06:34:59;;;;;;;1999.90;999.90;;;;;;;-2.73;43.56;102539.16;4997438;28;97856;-69
2022/03/10 06:37:26;;;;;;;1999.90;999.90;;;;;;;-2.71;44.01;102531.50;5006487;28;97331;-69
2022/03/10 06:39:55;;;;;;;1999.90;999.90;;;;;;;-2.70;43.95;102533.31;5011609;27;96785;-68
2022/03/10 06:42:23;;;;;;;1999.90;999.90;;;;;;;-2.69;44.16;102538.69;5017217;27;96957;-69
2022/03/10 06:44:51;;;;;;;1999.90;999.90;;;;;;;-2.66;44.12;102543.28;5009444;28;98889;-69
2022/03/10 06:47:19;;;;;;;1999.90;999.90;;;;;;;-2.65;43.97;102543.44;4995440;27;98501;-69
2022/03/10 06:49:46;;;;;;;1999.90;999.90;;;;;;;-2.64;44.10;102539.16;4992991;28;97866;-69
2022/03/10 06:52:19;;;;;;;1999.90;999.90;;;;;;;-2.62;44.05;102549.00;5006770;28;98753;-70
2022/03/10 06:54:47;;;;;;;1999.90;999.90;;;;;;;-2.57;43.56;102546.84;5016713;27;99463;-68
2022/03/10 06:57:19;;;;;;;1999.90;999.90;;;;;;;-2.55;43.34;102556.66;5009800;28;98022;-69
2022/03/10 06:59:46;;;;;;;1999.90;999.90;;;;;;;-2.51;43.87;102553.56;5019763;28;97132;-69
2022/03/10 07:02:15;;;;;;;1999.90;999.90;;;;;;;-2.50;43.67;102560.66;4979558;28;98931;-69
2022/03/10 07:04:43;;;;;;;1999.90;999.90;;;;;;;-2.49;43.49;102552.03;5001614;27;97723;-69
2022/03/10 07:07:11;;;;;;;1999.90;999.90;;;;;;;-2.46;43.89;102549.78;5012376;27;99099;-69
2022/03/10 07:09:38;;;;;;;1999.90;999.90;;;;;;;-2.43;43.60;102557.88;5002599;27;97915;-69
2022/03/10 07:12:07;;;;;;;1999.90;999.90;;;;;;;-2.40;43.20;102558.19;4995609;28;97755;-70
2022/03/10 07:14:38;;;;;;;1999.90;999.90;;;;;;;-2.37;43.84;102561.13;5016222;28;97889;-70
2022/03/10 07:17:06;;;;;;;1999.90;999.90;;;;;;;-2.35;43.64;102561.28;4998038;27;99988;-69
2022/03/10 07:19:34;;;;;;;1999.90;999.90;;;;;;;-2.33;43.47;102564.97;5019020;27;96837;-70
2022/03/10 07:22:02;;;;;;;1999.90;999.90;;;;;;;-2.32;43.54;102567.72;5018130;27;99167;-71
2022/03/10 07:24:31;;;;;;;1999.90;999.90;;;;;;;-2.29;43.90;102562.78;4987319;28;98452;-70
2022/03/10 07:27:00;;;;;;;1999.90;999.90;;;;;;;-2.28;43.85;102562.06;5000679;27;97763;-69
2022/03/10 07:29:28;;;;;;;1999.90;999.90;;;;;;;-2.24;43.27;102566.81;4997984;28;97999;-69
2022/03/10 07:31:58;;;;;;;1999.90;999.90;;;;;;;-2.20;43.86;102571.53;5016782;27;99095;-69
2022/03/10 07:34:26;;;;;;;1999.90;999.90;;;;;;;-2.15;43.13;102570.38;5018810;27;98238;-68
2022/03/10 07:36:54;;;;;;;1999.90;999.90;;;;;;;-2.08;43.46;102569.28;4992887;28;98103;-70
2022/03/10 07:39:22;;;;;;;1999.90;999.90;;;;;;;-2.06;43.32;102573.91;4989302;28;97365;-68
2022/03/10 07:41:50;;;;;;;1999.90;999.90;;;;;;;-2.00;43.34;102568.38;5012231;27;98961;-68
2022/03/10 07:44:17;;;;;;;1999.90;999.90;;;;;;;-1.90;43.22;102578.94;5004791;28;97702;-69
2022/03/10 07:46:45;;;;;;;1999.90;999.90;;;;;;;-1.85;42.76;102581.25;5013754;27;97663;-70
2022/03/10 07:49:14;;;;;;;1999.90;999.90;;;;;;;-1.78;42.48;102581.84;4999557;28;96587;-69
2022/03/10 07:51:43;;;;;;;1999.90;999.90;;;;;;;-1.73;43.25;102583.22;5009365;28;97022;-69
2022/03/10 07:54:10;;;;;;;1999.90;999.90;;;;;;;-1.67;42.78;102583.84;5015355;28;100086;-69
2022/03/10 07:56:38;;;;;;;1999.90;999.90;;;;;;;-1.62;43.08;102585.19;4992232;28;99424;-69
2022/03/10 07:59:06;;;;;;;1999.90;999.90;;;;;;;-1.52;42.87;102583.63;5020110;28;96896;-69
2022/03/10 08:01:33;;;;;;;1999.90;999.90;;;;;;;-1.46;43.04;102584.25;5003344;27;97080;-69
2022/03/10 08:04:02;;;;;;;1999.90;999.90;;;;;;;-1.40;42.31;102579.63;5012607;27;98914;-68
2022/03/10 08:06:32;;;;;;;1999.90;999.90;;;;;;;-1.34;42.84;102584.53;5019068;28;97811;-69
2022/03/10 08:09:02;;;;;;;1999.90;999.90;;;;;;;-1.27;42.36;102581.75;5023206;28;96792;-69
2022/03/10 08:11:29;;;;;;;1999.90;999.90;;;;;;;-1.21;42.63;102579.69;5005866;28;96940;-69
2022/03/10 08:13:57;;;;;;;1999.90;999.90;;;;;;;-1.16;42.63;102575.84;5005638;28;97731;-69
2022/03/10 08:16:25;;;;;;;1999.90;999.90;;;;;;;-1.09;42.26;102584.44;5003945;28;101087;-70
2022/03/10 08:18:53;;;;;;;1999.90;999.90;;;;;;;-1.04;42.04;102577.03;5021436;28;97566;-69
2022/03/10 08:21:20;;;;;;;1999.90;999.90;;;;;;;-0.99;41.98;102575.75;5014388;27;99643;-69
2022/03/10 08:23:50;;;;;;;1999.90;999.90;;;;;;;-0.93;42.62;102581.59;5018797;28;98711;-69
2022/03/10 08:26:18;;;;;;;1999.90;999.90;;;;;;;-0.86;42.51;102589.22;5006472;27;100664;-69
2022/03/10 08:28:51;;;;;;;1999.90;999.90;;;;;;;-0.80;42.34;102584.59;5019347;27;97655;-69
2022/03/10 08:31:18;;;;;;;1999.90;999.90;;;;;;;-0.74;41.90;102584.25;5006800;28;97172;-69
2022/03/10 08:33:46;;;;;;;1999.90;999.90;;;;;;;-0.65;41.91;102585.13;5022539;28;97739;-69
2022/03/10 08:36:15;;;;;;;1999.90;999.90;;;;;;;-0.57;41.84;102582.44;5013395;27;99254;-69
2022/03/10 08:38:43;;;;;;;1999.90;999.90;;;;;;;-0.48;41.71;102582.41;4996468;28;96983;-69
2022/03/10 08:41:12;;;;;;;1999.90;999.90;;;;;;;-0.41;41.95;102579.59;5021504;28;96983;-69
2022/03/10 08:43:39;;;;;;;1999.90;999.90;;;;;;;-0.32;41.96;102576.13;5004960;28;99625;-69
2022/03/10 08:46:07;;;;;;;1999.90;999.90;;;;;;;-0.22;41.58;102570.97;5020289;28;98445;-69
2022/03/10 08:48:35;;;;;;;1999.90;999.90;;;;;;;-0.14;41.75;102564.78;5029876;27;97555;-69
2022/03/10 08:51:04;;;;;;;1999.90;999.90;;;;;;;-0.05;41.33;102568.22;5004682;27;98528;-69
2022/03/10 08:53:32;;;;;;;1999.90;999.90;;;;;;;0.04;41.50;102571.69;5015931;27;97035;-69
2022/03/10 08:56:00;;;;;;;1999.90;999.90;;;;;;;0.14;41.47;102573.41;5001205;28;98500;-69
2022/03/10 08:58:29;;;;;;;1999.90;999.90;;;;;;;0.09;41.16;102575.63;5014890;27;97385;-69
2022/03/10 09:00:57;;;;;;;1999.90;999.90;;;;;;;0.16;41.46;102582.34;5016600;27;98558;-69
2022/03/10 09:03:44;;;;;;;1999.90;999.90;;;;;;;0.25;41.64;102571.84;5017135;27;99915;-69
2022/03/10 09:06:13;;;;;;;1999.90;999.90;;;;;;;0.33;41.36;102570.81;5010435;27;98116;-69
2022/03/10 09:08:42;;;;;;;1999.90;999.90;;;;;;;0.42;41.23;102576.88;5018672;27;97213;-69
2022/03/10 09:11:10;;;;;;;1999.90;999.90;;;;;;;0.50;41.04;102574.19;5015517;27;98145;-69
2022/03/10 09:13:41;;;;;;;1999.90;999.90;;;;;;;0.59;41.00;102571.47;4996725;28;99532;-68
2022/03/10 09:16:08;;;;;;;1999.90;999.90;;;;;;;0.68;40.88;102569.66;5006708;27;99923;-68
2022/03/10 09:18:37;;;;;;;1999.90;999.90;;;;;;;0.76;40.78;102566.00;5000949;27;96974;-69
2022/03/10 09:21:06;;;;;;;1999.90;999.90;;;;;;;0.84;41.13;102570.25;5017531;27;98280;-69
2022/03/10 09:23:34;;;;;;;1999.90;999.90;;;;;;;0.91;41.09;102557.81;4987829;28;99660;-69
2022/03/10 09:26:01;;;;;;;1999.90;999.90;;;;;;;0.98;40.55;102551.41;4995209;28;97892;-69
2022/03/10 09:28:30;;;;;;;1999.90;999.90;;;;;;;1.08;40.41;102561.91;5010619;27;96773;-69
2022/03/10 09:30:59;;;;;;;1999.90;999.90;;;;;;;1.15;40.27;102553.78;5031878;27;97628;-69
2022/03/10 09:33:27;;;;;;;1999.90;999.90;;;;;;;1.23;41.12;102555.38;5017092;27;97566;-69
2022/03/10 09:35:56;;;;;;;1999.90;999.90;;;;;;;1.31;40.46;102551.72;5013369;27;99203;-68
2022/03/10 09:38:23;;;;;;;1999.90;999.90;;;;;;;1.41;40.89;102553.44;5007995;27;97333;-70
2022/03/10 09:40:54;;;;;;;1999.90;999.90;;;;;;;1.48;40.45;102546.22;5001576;27;98894;-69
2022/03/10 09:43:22;;;;;;;1999.90;999.90;;;;;;;1.56;40.53;102553.00;5008797;27;98044;-69
2022/03/10 09:45:51;;;;;;;1999.90;999.90;;;;;;;1.64;40.29;102551.97;5013294;27;96785;-69
2022/03/10 09:48:20;;;;;;;1999.90;999.90;;;;;;;1.73;40.16;102550.13;5016017;27;96731;-69
2022/03/10 09:50:49;;;;;;;1999.90;999.90;;;;;;;1.81;39.79;102554.34;5008800;27;97074;-69
2022/03/10 09:53:18;;;;;;;1999.90;999.90;;;;;;;1.89;39.83;102553.25;5013911;27;98509;-68
2022/03/10 09:55:46;;;;;;;1999.90;999.90;;;;;;;1.96;39.73;102552.97;4998339;27;99689;-71
2022/03/10 09:58:14;;;;;;;1999.90;999.90;;;;;;;2.05;39.97;102553.72;5016989;27;97427;-70
2022/03/10 10:00:42;;;;;;;1999.90;999.90;;;;;;;2.15;39.86;102556.38;5014746;27;97002;-69
2022/03/10 10:03:10;;;;;;;1999.90;999.90;;;;;;;2.23;40.00;102546.53;5007792;27;98735;-71
2022/03/10 10:05:40;;;;;;;1999.90;999.90;;;;;;;2.32;39.42;102541.09;5013097;27;97612;-71
2022/03/10 10:08:09;;;;;;;1999.90;999.90;;;;;;;2.39;39.94;102546.06;5015732;27;96798;-70
2022/03/10 10:10:39;;;;;;;1999.90;999.90;;;;;;;2.46;39.42;102541.44;5013237;27;99440;-71
2022/03/10 10:13:24;;;;;;;1999.90;999.90;;;;;;;2.54;39.79;102545.63;5004146;27;97765;-71
2022/03/10 10:15:55;;;;;;;1999.90;999.90;;;;;;;2.64;39.27;102549.88;5007528;27;97815;-71
2022/03/10 10:18:23;;;;;;;1999.90;999.90;;;;;;;2.73;39.13;102537.50;5003824;27;97309;-70
2022/03/10 10:21:12;;;;;;;1999.90;999.90;;;;;;;2.81;38.80;102534.69;5006310;27;96862;-71
2022/03/10 10:23:40;;;;;;;1999.90;999.90;;;;;;;2.89;39.17;102528.31;4981457;28;99458;-71
2022/03/10 10:26:09;;;;;;;1999.90;999.90;;;;;;;2.99;39.31;102529.97;4998247;27;100607;-71
2022/03/10 10:28:45;;;;;;;1999.90;999.90;;;;;;;3.07;38.95;102531.50;5001972;27;100497;-71
2022/03/10 10:31:15;;;;;;;1999.90;999.90;;;;;;;3.14;38.95;102529.47;5025874;27;97324;-71
2022/03/10 10:33:44;;;;;;;1999.90;999.90;;;;;;;3.20;38.40;102529.03;5005760;27;99038;-71
2022/03/10 10:36:18;;;;;;;1999.90;999.90;;;;;;;3.31;38.95;102532.50;4984950;27;99299;-70
2022/03/10 10:38:48;;;;;;;1999.90;999.90;;;;;;;3.38;38.43;102522.59;4992722;28;97042;-70
2022/03/10 10:41:20;;;;;;;1999.90;999.90;;;;;;;3.46;38.35;102525.81;5003513;27;98262;-71
2022/03/10 10:43:50;;;;;;;1999.90;999.90;;;;;;;3.52;38.39;102528.91;4971426;28;99375;-71
2022/03/10 10:46:37;;;;;;;1999.90;999.90;;;;;;;3.59;38.04;102523.28;4980437;27;99601;-71
2022/03/10 10:49:07;;;;;;;1999.90;999.90;;;;;;;3.68;38.39;102518.78;5004039;27;96926;-70
2022/03/10 10:51:38;;;;;;;1999.90;999.90;;;;;;;3.78;38.04;102519.63;5007257;27;97835;-71
2022/03/10 10:54:08;;;;;;;1999.90;999.90;;;;;;;3.85;38.21;102511.38;4992712;27;98486;-70
2022/03/10 10:56:45;;;;;;;1999.90;999.90;;;;;;;3.95;37.89;102503.34;4977506;28;100789;-70
2022/03/10 10:59:26;;;;;;;1999.90;999.90;;;;;;;4.02;37.98;102500.38;4994366;27;97394;-70